createdAt,value
2022-10-29T00:00:12.058Z,17.30
2022-10-29T00:03:00.809Z,17.83
2022-10-29T00:05:29.507Z,17.20
2022-10-29T00:08:03.792Z,17.27
2022-10-29T00:10:33.091Z,16.67
2022-10-29T00:13:05.765Z,16.35
2022-10-29T00:15:34.626Z,17.02
2022-10-29T00:18:03.147Z,16.75
2022-10-29T00:20:32.011Z,17.77
2022-10-29T00:23:00.389Z,14.82
2022-10-29T00:25:29.138Z,13.60
2022-10-29T00:27:57.964Z,15.75
2022-10-29T00:30:26.738Z,14.50
2022-10-29T00:32:55.885Z,15.50
2022-10-29T00:35:24.898Z,16.42
2022-10-29T00:37:53.931Z,16.80
2022-10-29T00:40:22.646Z,15.30
2022-10-29T00:42:51.003Z,14.05
2022-10-29T00:45:21.665Z,14.27
2022-10-29T00:47:53.078Z,14.00
2022-10-29T00:50:24.498Z,13.18
2022-10-29T00:52:54.648Z,14.90
2022-10-29T00:55:23.399Z,15.10
2022-10-29T00:57:55.269Z,16.38
2022-10-29T01:00:24.327Z,14.48
2022-10-29T01:02:53.019Z,14.50
2022-10-29T01:05:25.106Z,14.73
2022-10-29T01:07:56.054Z,13.93
2022-10-29T01:10:40.805Z,12.10
2022-10-29T01:16:40.236Z,12.65
2022-10-29T01:19:21.645Z,12.70
2022-10-29T01:22:20.661Z,11.93
2022-10-29T01:24:59.531Z,12.40
2022-10-29T01:27:45.899Z,12.85
2022-10-29T01:30:23.668Z,12.35
2022-10-29T01:33:17.010Z,13.68
2022-10-29T01:36:09.591Z,13.40
2022-10-29T01:38:47.271Z,13.23
2022-10-29T01:41:42.321Z,12.23
2022-10-29T01:44:28.248Z,12.80
2022-10-29T01:47:03.936Z,11.93
2022-10-29T01:49:40.542Z,12.88
2022-10-29T01:52:13.368Z,12.38
2022-10-29T01:54:46.341Z,11.98
2022-10-29T01:57:36.179Z,11.48
2022-10-29T02:00:13.893Z,11.52
2022-10-29T02:03:04.756Z,12.23
2022-10-29T02:05:40.254Z,11.77
2022-10-29T02:08:21.185Z,12.68
2022-10-29T02:11:16.055Z,12.98
2022-10-29T02:13:54.830Z,11.98
2022-10-29T02:16:25.638Z,13.18
2022-10-29T02:18:54.646Z,11.18
2022-10-29T02:21:24.778Z,12.60
2022-10-29T02:23:53.376Z,11.50
2022-10-29T02:26:22.596Z,10.52
2022-10-29T02:28:51.490Z,11.38
2022-10-29T02:31:20.211Z,11.75
2022-10-29T02:33:48.784Z,11.30
2022-10-29T02:36:25.711Z,11.50
2022-10-29T02:38:54.708Z,12.38
2022-10-29T02:41:23.146Z,11.43
2022-10-29T02:43:51.542Z,11.50
2022-10-29T02:46:22.576Z,11.70
2022-10-29T02:48:51.049Z,12.02
2022-10-29T02:51:19.415Z,11.70
2022-10-29T02:53:48.015Z,11.80
2022-10-29T02:56:16.473Z,11.90
2022-10-29T02:58:44.860Z,13.05
2022-10-29T03:01:13.928Z,11.25
2022-10-29T03:03:42.329Z,11.60
2022-10-29T03:06:15.248Z,11.20
2022-10-29T03:08:45.548Z,11.68
2022-10-29T03:11:14.348Z,11.55
2022-10-29T03:13:43.071Z,11.82
2022-10-29T03:16:11.744Z,11.07
2022-10-29T03:18:40.110Z,11.18
2022-10-29T03:21:14.721Z,11.30
2022-10-29T03:23:43.395Z,11.73
2022-10-29T03:26:11.813Z,10.80
2022-10-29T03:28:40.624Z,9.77
2022-10-29T03:31:09.478Z,11.45
2022-10-29T03:33:38.899Z,10.80
2022-10-29T03:36:08.208Z,12.02
2022-10-29T03:38:37.232Z,11.23
2022-10-29T03:41:10.683Z,11.43
2022-10-29T03:43:40.036Z,11.70
2022-10-29T03:46:09.665Z,11.45
2022-10-29T03:48:38.659Z,11.23
2022-10-29T03:51:07.903Z,12.30
2022-10-29T03:53:37.923Z,11.45
2022-10-29T03:56:07.165Z,11.07
2022-10-29T03:58:35.852Z,11.38
2022-10-29T04:04:59.111Z,11.70
2022-10-29T04:07:28.117Z,11.68
2022-10-29T04:09:56.598Z,11.75
2022-10-29T04:12:25.325Z,11.45
2022-10-29T04:14:53.912Z,11.90
2022-10-29T04:17:22.389Z,11.65
2022-10-29T04:19:51.344Z,11.13
2022-10-29T04:30:47.223Z,11.57
2022-10-29T04:33:18.170Z,12.10
2022-10-29T04:35:53.433Z,13.15
2022-10-29T04:38:22.502Z,10.88
2022-10-29T04:40:52.017Z,10.52
2022-10-29T04:43:20.399Z,11.32
2022-10-29T04:45:53.060Z,11.20
2022-10-29T04:48:24.042Z,11.50
2022-10-29T04:50:53.080Z,11.02
2022-10-29T04:53:22.390Z,11.27
2022-10-29T04:55:50.917Z,11.68
2022-10-29T04:58:20.063Z,11.60
2022-10-29T05:00:48.627Z,11.68
2022-10-29T05:03:17.481Z,11.57
2022-10-29T05:05:45.804Z,11.93
2022-10-29T05:08:15.442Z,11.90
2022-10-29T05:10:47.695Z,11.77
2022-10-29T05:13:16.554Z,11.48
2022-10-29T05:15:53.236Z,13.15
2022-10-29T05:18:22.301Z,11.55
2022-10-29T05:20:55.109Z,12.23
2022-10-29T05:23:24.536Z,11.63
2022-10-29T05:25:55.932Z,11.88
2022-10-29T05:30:54.422Z,12.30
2022-10-29T05:33:24.906Z,12.52
2022-10-29T05:35:53.341Z,13.00
2022-10-29T05:38:22.312Z,12.93
2022-10-29T05:40:50.899Z,12.25
2022-10-29T05:43:20.499Z,13.20
2022-10-29T05:45:48.912Z,12.07
2022-10-29T05:48:17.670Z,12.80
2022-10-29T05:50:46.201Z,12.73
2022-10-29T05:53:15.549Z,13.25
2022-10-29T05:55:44.157Z,12.35
2022-10-29T05:58:14.109Z,12.88
2022-10-29T06:00:45.518Z,12.35
2022-10-29T06:03:19.636Z,12.40
2022-10-29T06:05:49.685Z,12.80
2022-10-29T06:08:18.854Z,12.75
2022-10-29T06:10:47.388Z,12.82
2022-10-29T06:13:18.441Z,12.45
2022-10-29T06:15:48.506Z,12.45
2022-10-29T06:18:17.450Z,12.90
2022-10-29T06:20:46.066Z,12.40
2022-10-29T06:23:14.708Z,12.02
2022-10-29T06:25:43.366Z,11.63
2022-10-29T06:28:15.524Z,11.23
2022-10-29T06:30:49.327Z,12.18
2022-10-29T06:33:19.059Z,11.90
2022-10-29T06:35:47.892Z,11.95
2022-10-29T06:38:16.789Z,11.57
2022-10-29T06:40:55.370Z,11.57
2022-10-29T06:43:24.051Z,11.60
2022-10-29T06:45:52.679Z,11.73
2022-10-29T06:48:22.948Z,11.27
2022-10-29T06:50:52.426Z,11.57
2022-10-29T06:53:21.323Z,11.55
2022-10-29T06:55:49.665Z,13.05
2022-10-29T06:58:21.191Z,11.90
2022-10-29T07:00:50.047Z,12.50
2022-10-29T07:03:20.971Z,11.88
2022-10-29T07:05:57.144Z,12.40
2022-10-29T07:08:29.605Z,11.70
2022-10-29T07:10:58.703Z,11.35
2022-10-29T07:14:01.969Z,11.52
2022-10-29T07:17:13.760Z,12.38
2022-10-29T07:20:17.109Z,11.43
2022-10-29T07:23:18.281Z,11.63
2022-10-29T07:34:49.889Z,10.65
2022-10-29T07:37:39.146Z,11.35
2022-10-29T07:40:08.771Z,11.77
2022-10-29T07:42:40.019Z,11.65
2022-10-29T07:45:39.524Z,11.02
2022-10-29T07:48:09.529Z,11.57
2022-10-29T07:50:39.476Z,12.30
2022-10-29T07:53:08.402Z,11.95
2022-10-29T07:55:37.824Z,11.73
2022-10-29T07:58:10.680Z,11.55
2022-10-29T08:00:42.030Z,12.15
2022-10-29T08:03:12.536Z,11.85
2022-10-29T08:05:42.979Z,11.40
2022-10-29T08:08:12.112Z,11.70
2022-10-29T08:10:41.744Z,12.45
2022-10-29T08:13:10.664Z,11.20
2022-10-29T08:15:39.709Z,11.82
2022-10-29T08:18:15.862Z,12.07
2022-10-29T08:20:45.105Z,11.95
2022-10-29T08:23:15.146Z,11.75
2022-10-29T08:26:09.312Z,12.13
2022-10-29T08:28:37.804Z,12.20
2022-10-29T08:31:07.712Z,12.70
2022-10-29T08:33:36.908Z,12.90
2022-10-29T08:36:05.799Z,12.02
2022-10-29T08:38:34.772Z,11.90
2022-10-29T08:41:30.880Z,12.63
2022-10-29T08:44:28.735Z,12.35
2022-10-29T08:47:50.516Z,11.82
2022-10-29T08:50:30.668Z,11.38
2022-10-29T08:53:24.047Z,10.75
2022-10-29T08:57:04.053Z,11.02
2022-10-29T09:15:02.524Z,9.40
2022-10-29T09:19:00.384Z,9.18
2022-10-29T09:35:16.781Z,6.68
2022-10-29T09:37:49.950Z,7.47
2022-10-29T09:40:40.656Z,6.63
2022-10-29T09:43:49.449Z,6.97
2022-10-29T09:46:39.883Z,7.25
2022-10-29T09:49:20.885Z,6.35
2022-10-29T09:52:03.218Z,7.30
2022-10-29T09:54:32.289Z,6.30
2022-10-29T09:57:03.089Z,6.25
2022-10-29T09:59:42.479Z,6.43
2022-10-29T10:02:30.440Z,5.85
2022-10-29T10:05:06.300Z,6.43
2022-10-29T10:07:35.175Z,6.07
2022-10-29T10:10:06.783Z,5.55
2022-10-29T10:15:23.387Z,5.90
2022-10-29T10:18:02.575Z,6.50
2022-10-29T10:20:33.197Z,5.63
2022-10-29T10:24:21.162Z,4.75
2022-10-29T10:29:29.111Z,5.85
2022-10-29T10:31:57.714Z,6.28
2022-10-29T10:34:41.389Z,6.50
2022-10-29T10:37:10.032Z,6.50
2022-10-29T10:39:50.821Z,7.00
2022-10-29T10:42:45.244Z,7.43
2022-10-29T10:45:29.926Z,6.80
2022-10-29T10:48:32.527Z,6.53
2022-10-29T10:51:39.059Z,6.50
2022-10-29T10:54:49.890Z,6.50
2022-10-29T11:01:14.111Z,6.78
2022-10-29T11:03:49.412Z,6.80
2022-10-29T11:06:25.772Z,6.47
2022-10-29T11:09:09.920Z,7.05
2022-10-29T11:11:46.097Z,7.30
2022-10-29T11:14:39.704Z,6.50
2022-10-29T11:17:36.625Z,6.10
2022-10-29T11:20:33.723Z,4.65
2022-10-29T11:23:23.729Z,5.13
2022-10-29T11:26:08.236Z,4.68
2022-10-29T11:28:54.519Z,5.15
2022-10-29T11:31:31.614Z,4.57
2022-10-29T11:34:21.378Z,4.78
2022-10-29T11:37:07.020Z,4.35
2022-10-29T11:39:51.632Z,4.30
2022-10-29T11:42:20.186Z,3.97
2022-10-29T11:44:48.935Z,4.20
2022-10-29T11:48:06.904Z,4.15
2022-10-29T11:50:53.373Z,4.20
2022-10-29T11:53:51.576Z,4.30
2022-10-29T11:56:48.868Z,4.75
2022-10-29T11:59:45.936Z,4.57
2022-10-29T12:02:46.249Z,4.10
2022-10-29T12:05:34.534Z,4.18
2022-10-29T12:08:13.843Z,3.72
2022-10-29T12:10:51.110Z,3.85
2022-10-29T12:13:44.883Z,3.83
2022-10-29T12:16:55.556Z,4.43
2022-10-29T12:19:56.471Z,4.40
2022-10-29T12:22:27.253Z,4.10
2022-10-29T12:25:03.186Z,4.28
2022-10-29T12:27:44.025Z,4.00
2022-10-29T12:30:17.578Z,4.00
2022-10-29T12:33:00.253Z,4.65
2022-10-29T12:35:32.009Z,3.97
2022-10-29T12:38:18.532Z,3.55
2022-10-29T12:40:53.841Z,3.80
2022-10-29T12:43:38.550Z,3.95
2022-10-29T12:46:36.337Z,4.15
2022-10-29T12:49:22.514Z,4.50
2022-10-29T12:54:34.453Z,3.75
2022-10-29T12:57:23.621Z,3.90
2022-10-29T12:59:52.263Z,4.07
2022-10-29T13:02:45.298Z,4.22
2022-10-29T13:05:16.655Z,3.85
2022-10-29T13:07:48.398Z,4.07
2022-10-29T13:10:26.566Z,4.72
2022-10-29T13:13:20.570Z,3.60
2022-10-29T13:16:05.619Z,3.88
2022-10-29T13:18:41.607Z,3.83
2022-10-29T13:21:32.780Z,4.55
2022-10-29T13:24:18.449Z,4.78
2022-10-29T13:27:22.998Z,5.15
2022-10-29T13:30:29.359Z,4.70
2022-10-29T13:32:58.172Z,5.20
2022-10-29T13:35:29.985Z,4.97
2022-10-29T13:38:12.049Z,5.47
2022-10-29T13:41:03.045Z,4.90
2022-10-29T13:43:35.273Z,5.22
2022-10-29T13:46:45.475Z,5.55
2022-10-29T13:49:22.683Z,5.88
2022-10-29T13:52:11.534Z,5.57
2022-10-29T13:54:58.070Z,5.75
2022-10-29T13:57:32.707Z,5.70
2022-10-29T14:00:17.450Z,6.10
2022-10-29T14:03:14.920Z,5.90
2022-10-29T14:06:07.972Z,5.95
2022-10-29T14:08:44.516Z,5.95
2022-10-29T14:11:19.777Z,6.43
2022-10-29T14:13:52.939Z,6.38
2022-10-29T14:16:29.627Z,6.22
2022-10-29T14:19:12.256Z,6.45
2022-10-29T14:21:41.117Z,6.20
2022-10-29T14:24:13.981Z,6.40
2022-10-29T14:26:44.571Z,7.28
2022-10-29T14:29:24.969Z,7.05
2022-10-29T14:32:08.918Z,6.82
2022-10-29T14:34:45.548Z,5.93
2022-10-29T14:37:32.284Z,6.60
2022-10-29T14:40:14.493Z,7.10
2022-10-29T14:42:47.202Z,7.47
2022-10-29T14:45:37.029Z,7.32
2022-10-29T14:48:16.283Z,6.55
2022-10-29T14:50:50.917Z,6.95
2022-10-29T14:53:34.688Z,8.90
2022-10-29T14:56:11.466Z,6.78
2022-10-29T14:58:41.987Z,6.88
2022-10-29T15:01:20.622Z,6.65
2022-10-29T15:03:58.198Z,6.47
2022-10-29T15:06:30.380Z,6.60
2022-10-29T15:09:07.538Z,6.72
2022-10-29T15:11:37.748Z,6.88
2022-10-29T15:14:32.968Z,6.63
2022-10-29T15:17:07.555Z,6.50
2022-10-29T15:19:37.470Z,11.15
2022-10-29T15:22:11.523Z,10.93
2022-10-29T15:24:45.066Z,12.55
2022-10-29T15:27:15.186Z,10.90
2022-10-29T15:29:47.312Z,14.02
2022-10-29T15:32:18.238Z,17.83
2022-10-29T15:34:52.955Z,20.70
2022-10-29T15:37:42.519Z,26.05
2022-10-29T15:40:36.005Z,23.45
2022-10-29T15:43:30.617Z,28.90
2022-10-29T15:45:59.701Z,56.17
2022-10-29T15:48:36.562Z,18.02
2022-10-29T15:51:05.246Z,10.65
2022-10-29T15:53:33.866Z,11.13
2022-10-29T15:56:04.149Z,28.83
2022-10-29T15:58:33.361Z,39.60
2022-10-29T16:01:01.829Z,27.38
2022-10-29T16:03:33.070Z,23.00
2022-10-29T16:06:06.835Z,20.80
2022-10-29T16:08:41.058Z,25.50
2022-10-29T16:11:15.016Z,24.05
2022-10-29T16:13:43.767Z,19.35
2022-10-29T16:16:21.056Z,26.83
2022-10-29T16:19:02.899Z,12.57
2022-10-29T16:21:31.917Z,17.90
2022-10-29T16:24:01.802Z,28.80
2022-10-29T16:27:17.585Z,23.02
2022-10-29T16:29:43.080Z,20.83
2022-10-29T16:32:19.410Z,19.63
2022-10-29T16:35:01.815Z,18.25
2022-10-29T16:37:41.482Z,20.80
2022-10-29T16:40:10.806Z,19.02
2022-10-29T16:42:40.133Z,15.90
2022-10-29T16:45:12.912Z,17.27
2022-10-29T16:47:41.753Z,16.70
2022-10-29T16:50:18.386Z,24.40
2022-10-29T16:52:47.488Z,16.52
2022-10-29T16:55:16.377Z,20.42
2022-10-29T16:57:45.127Z,20.70
2022-10-29T17:00:14.282Z,23.55
2022-10-29T17:02:46.726Z,17.85
2022-10-29T17:05:15.772Z,16.88
2022-10-29T17:07:44.960Z,19.08
2022-10-29T17:10:13.845Z,19.40
2022-10-29T17:12:42.596Z,16.38
2022-10-29T17:15:11.676Z,21.20
2022-10-29T17:17:43.822Z,24.23
2022-10-29T17:20:16.181Z,15.88
2022-10-29T17:22:45.457Z,13.27
2022-10-29T17:25:14.962Z,8.52
2022-10-29T17:27:45.054Z,8.40
2022-10-29T17:30:13.572Z,8.32
2022-10-29T17:32:42.366Z,8.57
2022-10-29T17:35:10.910Z,9.00
2022-10-29T17:37:39.847Z,11.75
2022-10-29T17:40:17.058Z,13.82
2022-10-29T17:42:46.003Z,14.05
2022-10-29T17:45:20.575Z,11.57
2022-10-29T17:47:49.701Z,10.23
2022-10-29T17:50:19.004Z,10.48
2022-10-29T17:52:47.757Z,10.13
2022-10-29T17:55:16.963Z,16.35
2022-10-29T17:57:45.482Z,13.43
2022-10-29T18:00:16.645Z,10.32
2022-10-29T18:02:45.545Z,9.18
2022-10-29T18:05:14.236Z,10.05
2022-10-29T18:07:42.719Z,9.07
2022-10-29T18:10:11.782Z,8.82
2022-10-29T18:12:42.731Z,9.30
2022-10-29T18:15:19.273Z,11.30
2022-10-29T18:18:02.497Z,16.23
2022-10-29T18:20:39.597Z,20.48
2022-10-29T18:23:08.494Z,16.48
2022-10-29T18:25:36.890Z,24.25
2022-10-29T18:28:09.474Z,26.15
2022-10-29T18:30:39.413Z,31.65
2022-10-29T18:34:01.678Z,30.33
2022-10-29T18:36:31.140Z,28.30
2022-10-29T18:39:06.586Z,23.13
2022-10-29T18:41:36.684Z,25.23
2022-10-29T18:44:05.362Z,22.60
2022-10-29T18:46:34.235Z,25.33
2022-10-29T18:49:02.935Z,14.60
2022-10-29T18:51:32.551Z,12.90
2022-10-29T18:54:00.923Z,14.57
2022-10-29T18:56:30.730Z,17.63
2022-10-29T18:59:00.457Z,22.90
2022-10-29T19:01:32.278Z,18.60
2022-10-29T19:04:08.752Z,20.48
2022-10-29T19:06:38.377Z,20.90
2022-10-29T19:09:08.719Z,22.20
2022-10-29T19:11:40.518Z,15.20
2022-10-29T19:14:43.573Z,21.55
2022-10-29T19:17:19.809Z,20.00
2022-10-29T19:19:48.611Z,20.73
2022-10-29T19:22:17.302Z,19.65
2022-10-29T19:24:46.887Z,18.90
2022-10-29T19:27:15.883Z,14.00
2022-10-29T19:29:53.348Z,13.70
2022-10-29T19:32:29.527Z,15.43
2022-10-29T19:34:58.166Z,19.00
2022-10-29T19:37:27.398Z,22.73
2022-10-29T19:39:55.899Z,17.88
2022-10-29T19:42:24.444Z,18.95
2022-10-29T19:44:55.484Z,12.35
2022-10-29T19:47:25.059Z,12.73
2022-10-29T19:49:53.489Z,12.90
2022-10-29T19:52:23.743Z,13.07
2022-10-29T19:54:52.238Z,13.10
2022-10-29T19:57:21.054Z,13.55
2022-10-29T19:59:50.395Z,16.40
2022-10-29T20:02:20.056Z,17.45
2022-10-29T20:04:48.665Z,20.58
2022-10-29T20:07:17.189Z,24.15
2022-10-29T20:09:49.425Z,25.02
2022-10-29T20:12:18.706Z,15.38
2022-10-29T20:14:47.073Z,14.45
2022-10-29T20:17:16.734Z,14.50
2022-10-29T20:19:45.106Z,19.50
2022-10-29T20:22:13.503Z,19.73
2022-10-29T20:24:47.594Z,26.88
2022-10-29T20:27:16.175Z,16.55
2022-10-29T20:29:44.809Z,15.02
2022-10-29T20:32:13.083Z,14.88
2022-10-29T20:34:41.571Z,14.90
2022-10-29T20:37:10.723Z,15.63
2022-10-29T20:39:39.009Z,15.68
2022-10-29T20:42:07.299Z,16.02
2022-10-29T20:44:37.281Z,19.60
2022-10-29T20:47:06.202Z,24.75
2022-10-29T20:50:00.136Z,24.38
2022-10-29T20:52:30.594Z,21.35
2022-10-29T20:55:25.420Z,20.35
2022-10-29T20:57:54.726Z,15.98
2022-10-29T21:00:25.697Z,21.83
2022-10-29T21:02:54.562Z,24.52
2022-10-29T21:05:22.827Z,16.52
2022-10-29T21:07:52.471Z,15.30
2022-10-29T21:10:21.023Z,18.40
2022-10-29T21:12:49.680Z,14.77
2022-10-29T21:18:10.838Z,16.92
2022-10-29T21:20:39.527Z,16.38
2022-10-29T21:23:34.693Z,16.52
2022-10-29T21:26:05.281Z,15.73
2022-10-29T21:28:37.312Z,15.15
2022-10-29T21:31:15.418Z,14.27
2022-10-29T21:33:46.122Z,14.50
2022-10-29T21:36:15.135Z,15.45
2022-10-29T21:39:08.406Z,15.00
2022-10-29T21:42:04.130Z,17.30
2022-10-29T21:44:32.656Z,17.08
2022-10-29T21:47:06.570Z,18.25
2022-10-29T21:49:34.954Z,19.50
2022-10-29T21:57:46.056Z,16.58
2022-10-29T22:00:50.059Z,14.27
2022-10-29T22:03:19.617Z,15.40
2022-10-29T22:06:14.663Z,15.23
2022-10-29T22:08:44.969Z,13.90
2022-10-29T22:11:15.117Z,13.63
2022-10-29T22:13:44.066Z,13.10
2022-10-29T22:16:12.873Z,15.65
2022-10-29T22:18:42.874Z,13.82
2022-10-29T22:21:17.842Z,13.63
2022-10-29T22:23:48.507Z,13.00
2022-10-29T22:26:19.467Z,14.00
2022-10-29T22:28:48.027Z,13.15
2022-10-29T22:31:19.219Z,12.57
2022-10-29T22:33:48.059Z,12.63
2022-10-29T22:36:27.218Z,12.27
2022-10-29T22:38:58.385Z,12.93
2022-10-29T22:41:27.659Z,12.07
2022-10-29T22:43:59.034Z,13.27
2022-10-29T22:46:30.604Z,14.57
2022-10-29T22:49:14.819Z,12.75
2022-10-29T22:51:45.845Z,13.90
2022-10-29T22:54:16.256Z,14.13
2022-10-29T22:56:44.954Z,16.95
2022-10-29T22:59:13.805Z,14.00
2022-10-29T23:01:45.571Z,14.18
2022-10-29T23:04:15.987Z,13.90
2022-10-29T23:06:48.232Z,14.85
2022-10-29T23:09:17.178Z,14.70
2022-10-29T23:11:45.553Z,20.42
2022-10-29T23:14:13.985Z,29.67
2022-10-29T23:16:42.741Z,25.38
2022-10-29T23:19:12.532Z,20.45
2022-10-29T23:21:41.007Z,16.70
2022-10-29T23:24:10.190Z,17.95
2022-10-29T23:26:39.322Z,16.60
2022-10-29T23:29:07.699Z,16.67
2022-10-29T23:31:37.029Z,17.08
2022-10-29T23:34:06.742Z,16.67
2022-10-29T23:36:35.145Z,16.23
2022-10-29T23:39:03.921Z,16.00
2022-10-29T23:41:32.272Z,15.50
2022-10-29T23:44:00.801Z,15.57
2022-10-29T23:46:30.072Z,17.33
2022-10-29T23:48:58.430Z,16.33
2022-10-29T23:51:26.958Z,17.08
2022-10-29T23:53:57.629Z,18.23
2022-10-29T23:56:26.733Z,17.70
2022-10-29T23:58:55.619Z,16.80
